createdAt,value
2022-09-07T02:00:50.424Z,1.00
2022-09-07T02:01:11.219Z,1.00
2022-09-07T02:01:31.678Z,0.80
2022-09-07T02:01:52.302Z,0.80
2022-09-07T02:02:12.878Z,0.90
2022-09-07T02:02:33.508Z,0.90
2022-09-07T02:02:54.154Z,0.90
2022-09-07T02:03:14.733Z,0.80
2022-09-07T02:03:35.314Z,0.90
2022-09-07T02:03:55.902Z,0.80
2022-09-07T02:04:16.488Z,0.80
2022-09-07T02:04:37.067Z,0.80
2022-09-07T02:04:57.658Z,0.80
2022-09-07T02:05:18.259Z,0.90
2022-09-07T02:05:38.839Z,0.90
2022-09-07T02:05:59.423Z,0.80
2022-09-07T02:06:19.820Z,0.90
2022-09-07T02:06:40.418Z,0.70
2022-09-07T02:07:01.002Z,0.80
2022-09-07T02:07:21.401Z,0.90
2022-09-07T02:07:41.986Z,0.80
2022-09-07T02:08:02.570Z,0.80
2022-09-07T02:08:23.156Z,0.80
2022-09-07T02:08:43.738Z,0.80
2022-09-07T02:09:04.331Z,0.90
2022-09-07T02:09:24.918Z,0.90
2022-09-07T02:09:45.502Z,0.90
2022-09-07T02:10:06.086Z,1.00
2022-09-07T02:10:27.225Z,1.00
2022-09-07T02:10:47.807Z,0.80
2022-09-07T02:11:08.391Z,0.70
2022-09-07T02:11:28.975Z,0.90
2022-09-07T02:11:49.576Z,1.00
2022-09-07T02:12:10.159Z,0.80
2022-09-07T02:12:30.743Z,0.80
2022-09-07T02:12:51.326Z,0.80
2022-09-07T02:13:11.908Z,0.90
2022-09-07T02:13:32.490Z,0.90
2022-09-07T02:13:53.075Z,0.90
2022-09-07T02:14:13.660Z,0.80
2022-09-07T02:14:34.247Z,1.00
2022-09-07T02:14:54.823Z,1.10
2022-09-07T02:15:16.586Z,0.90
2022-09-07T02:15:37.551Z,1.00
2022-09-07T02:15:58.209Z,1.00
2022-09-07T02:16:18.911Z,0.80
2022-09-07T02:16:39.197Z,0.80
2022-09-07T02:16:59.606Z,0.80
2022-09-07T02:17:20.188Z,0.80
2022-09-07T02:17:40.578Z,0.90
2022-09-07T02:18:00.976Z,0.80
2022-09-07T02:18:21.553Z,1.00
2022-09-07T02:18:42.142Z,0.90
2022-09-07T02:19:02.724Z,1.00
2022-09-07T02:19:23.310Z,0.90
2022-09-07T02:19:43.894Z,0.70
2022-09-07T02:20:04.480Z,0.90
2022-09-07T02:20:25.061Z,0.90
2022-09-07T02:20:45.639Z,0.80
2022-09-07T02:21:06.219Z,1.00
2022-09-07T02:21:26.800Z,1.00
2022-09-07T02:21:47.201Z,0.90
2022-09-07T02:22:07.797Z,1.00
2022-09-07T02:22:28.378Z,0.90
2022-09-07T02:22:48.782Z,1.00
2022-09-07T02:23:09.366Z,1.00
2022-09-07T02:23:29.948Z,0.90
2022-09-07T02:23:50.531Z,1.00
2022-09-07T02:24:11.115Z,0.90
2022-09-07T02:24:31.698Z,0.90
2022-09-07T02:24:52.280Z,0.90
2022-09-07T02:25:13.733Z,1.00
2022-09-07T02:25:34.316Z,0.90
2022-09-07T02:25:54.899Z,1.00
2022-09-07T02:26:15.481Z,1.00
2022-09-07T02:26:36.059Z,0.90
2022-09-07T02:26:56.643Z,1.00
2022-09-07T02:27:17.244Z,1.00
2022-09-07T02:27:37.827Z,0.80
2022-09-07T02:27:58.412Z,0.70
2022-09-07T02:28:18.996Z,1.10
2022-09-07T02:28:39.579Z,1.20
2022-09-07T02:29:00.730Z,0.90
2022-09-07T02:29:21.369Z,0.90
2022-09-07T02:29:41.948Z,0.90
2022-09-07T02:30:02.532Z,0.90
2022-09-07T02:30:23.113Z,1.00
2022-09-07T02:30:43.780Z,0.90
2022-09-07T02:31:04.413Z,0.90
2022-09-07T02:31:25.022Z,0.90
2022-09-07T02:31:45.575Z,1.00
2022-09-07T02:32:06.156Z,1.00
2022-09-07T02:32:26.770Z,0.90
2022-09-07T02:32:47.347Z,1.10
2022-09-07T02:33:07.931Z,0.90
2022-09-07T02:33:28.513Z,0.90
2022-09-07T02:33:49.100Z,0.80
2022-09-07T02:34:09.681Z,0.90
2022-09-07T02:34:30.263Z,0.80
2022-09-07T02:34:50.845Z,0.80
2022-09-07T02:35:11.432Z,0.90
2022-09-07T02:35:32.020Z,0.90
2022-09-07T02:35:52.599Z,0.90
2022-09-07T02:36:13.191Z,1.00
2022-09-07T02:36:33.776Z,0.90
2022-09-07T02:36:54.361Z,0.90
2022-09-07T02:37:14.943Z,1.20
2022-09-07T02:37:35.554Z,1.10
2022-09-07T02:37:56.122Z,1.00
2022-09-07T02:38:16.712Z,0.90
2022-09-07T02:38:37.289Z,1.00
2022-09-07T02:38:57.878Z,1.00
2022-09-07T02:39:18.457Z,0.80
2022-09-07T02:39:39.124Z,0.90
2022-09-07T02:39:59.701Z,0.80
2022-09-07T02:40:20.291Z,0.90
2022-09-07T02:40:40.861Z,0.90
2022-09-07T02:41:01.487Z,0.90
2022-09-07T02:41:22.028Z,1.00
2022-09-07T02:41:42.611Z,1.00
2022-09-07T02:42:03.214Z,1.10
2022-09-07T02:42:23.778Z,1.00
2022-09-07T02:42:44.380Z,0.80
2022-09-07T02:43:04.963Z,1.00
2022-09-07T02:43:25.560Z,1.10
2022-09-07T02:43:46.129Z,0.90
2022-09-07T02:44:06.528Z,1.00
2022-09-07T02:44:27.108Z,0.80
2022-09-07T02:44:47.693Z,0.80
2022-09-07T02:45:08.278Z,0.80
2022-09-07T02:45:28.859Z,0.90
2022-09-07T02:45:49.517Z,0.90
2022-09-07T02:46:10.257Z,0.90
2022-09-07T02:46:30.919Z,0.80
2022-09-07T02:46:51.490Z,0.80
2022-09-07T02:47:12.075Z,1.00
2022-09-07T02:47:32.661Z,1.00
2022-09-07T02:47:53.072Z,1.10
2022-09-07T02:48:13.661Z,1.00
2022-09-07T02:48:34.245Z,0.90
2022-09-07T02:48:55.731Z,1.00
2022-09-07T02:49:16.320Z,1.00
2022-09-07T02:49:36.899Z,1.00
2022-09-07T02:49:57.482Z,0.90
2022-09-07T02:50:18.065Z,0.80
2022-09-07T02:50:38.655Z,1.00
2022-09-07T02:50:59.235Z,1.00
2022-09-07T02:51:19.818Z,0.90
2022-09-07T02:51:40.402Z,0.90
2022-09-07T02:52:01.731Z,0.90
2022-09-07T02:52:22.316Z,1.00
2022-09-07T02:52:42.898Z,0.90
2022-09-07T02:53:03.503Z,0.90
2022-09-07T02:53:24.083Z,0.90
2022-09-07T02:53:45.231Z,1.10
2022-09-07T02:54:05.813Z,0.90
2022-09-07T02:54:26.399Z,1.00
2022-09-07T02:54:46.981Z,1.00
2022-09-07T02:55:07.564Z,0.80
2022-09-07T02:55:28.148Z,0.90
2022-09-07T02:55:48.731Z,0.90
2022-09-07T02:56:09.313Z,1.00
2022-09-07T02:56:29.894Z,0.90
2022-09-07T02:56:50.479Z,1.10
2022-09-07T02:57:11.058Z,1.20
2022-09-07T02:57:31.638Z,1.00
2022-09-07T02:57:52.223Z,1.10
2022-09-07T02:58:12.824Z,1.10
2022-09-07T02:58:33.406Z,1.00
2022-09-07T02:58:53.991Z,0.90
2022-09-07T02:59:14.571Z,0.90
2022-09-07T02:59:35.153Z,0.90
2022-09-07T02:59:55.746Z,0.80
2022-09-07T03:00:16.328Z,1.00
2022-09-07T03:00:36.910Z,1.00
2022-09-07T03:00:57.572Z,1.00
2022-09-07T03:01:18.211Z,1.00
2022-09-07T03:01:38.832Z,1.00
2022-09-07T03:01:59.407Z,1.00
2022-09-07T03:02:20.054Z,0.90
2022-09-07T03:02:40.734Z,0.90
2022-09-07T03:03:01.335Z,1.00
2022-09-07T03:03:21.907Z,1.00
2022-09-07T03:03:42.490Z,0.90
2022-09-07T03:04:03.073Z,0.90
2022-09-07T03:04:23.658Z,0.80
2022-09-07T03:04:44.060Z,0.90
2022-09-07T03:05:04.644Z,0.90
2022-09-07T03:05:25.223Z,0.90
2022-09-07T03:05:45.811Z,0.80
2022-09-07T03:06:06.392Z,0.90
2022-09-07T03:06:26.986Z,1.00
2022-09-07T03:06:47.571Z,0.90
2022-09-07T03:07:08.144Z,0.90
2022-09-07T03:07:28.729Z,1.00
2022-09-07T03:07:49.312Z,1.10
2022-09-07T03:08:09.910Z,0.90
2022-09-07T03:08:30.577Z,1.00
2022-09-07T03:08:51.157Z,1.10
2022-09-07T03:09:12.733Z,1.10
2022-09-07T03:09:33.317Z,1.00
2022-09-07T03:09:53.896Z,1.10
2022-09-07T03:10:14.481Z,1.10
2022-09-07T03:10:35.067Z,1.10
2022-09-07T03:10:55.783Z,1.00
2022-09-07T03:11:16.328Z,1.00
2022-09-07T03:11:36.913Z,1.10
2022-09-07T03:11:57.504Z,1.00
2022-09-07T03:12:17.902Z,1.00
2022-09-07T03:12:38.482Z,1.10
2022-09-07T03:12:59.065Z,1.00
2022-09-07T03:13:19.479Z,1.00
2022-09-07T03:13:40.067Z,0.80
2022-09-07T03:14:00.655Z,0.90
2022-09-07T03:14:21.239Z,1.00
2022-09-07T03:14:41.820Z,1.00
2022-09-07T03:15:02.404Z,1.00
2022-09-07T03:15:23.059Z,0.90
2022-09-07T03:15:43.682Z,0.90
2022-09-07T03:16:04.311Z,1.00
2022-09-07T03:16:24.951Z,1.00
2022-09-07T03:16:45.521Z,0.90
2022-09-07T03:17:06.102Z,1.00
2022-09-07T03:17:26.686Z,0.90
2022-09-07T03:17:47.072Z,1.00
2022-09-07T03:18:07.655Z,0.90
2022-09-07T03:18:28.250Z,0.90
2022-09-07T03:18:48.921Z,0.90
2022-09-07T03:19:09.495Z,1.00
2022-09-07T03:19:30.082Z,1.20
2022-09-07T03:19:50.671Z,0.90
2022-09-07T03:20:11.258Z,1.00
2022-09-07T03:20:31.838Z,0.90
2022-09-07T03:20:52.423Z,0.90
2022-09-07T03:21:13.741Z,0.90
2022-09-07T03:21:34.322Z,0.90
2022-09-07T03:21:54.906Z,0.90
2022-09-07T03:22:15.491Z,0.70
2022-09-07T03:22:36.074Z,0.90
2022-09-07T03:22:56.652Z,1.00
2022-09-07T03:23:17.233Z,1.00
2022-09-07T03:23:37.659Z,1.00
2022-09-07T03:23:58.231Z,0.90
2022-09-07T03:24:18.819Z,1.30
2022-09-07T03:24:39.206Z,1.40
2022-09-07T03:25:00.741Z,1.00
2022-09-07T03:25:21.327Z,0.90
2022-09-07T03:26:29.214Z,1.00
2022-09-07T03:26:49.795Z,0.90
2022-09-07T03:27:10.376Z,0.90
2022-09-07T03:27:30.961Z,0.90
2022-09-07T03:27:51.540Z,1.00
2022-09-07T03:28:12.126Z,0.80
2022-09-07T03:28:32.708Z,1.10
2022-09-07T03:28:53.303Z,1.00
2022-09-07T03:29:13.884Z,1.00
2022-09-07T03:29:34.470Z,1.10
2022-09-07T03:29:55.053Z,1.10
2022-09-07T03:30:16.474Z,0.90
2022-09-07T03:30:37.133Z,0.80
2022-09-07T03:30:57.718Z,0.90
2022-09-07T03:31:18.379Z,0.80
2022-09-07T03:31:38.957Z,0.80
2022-09-07T03:31:59.541Z,0.80
2022-09-07T03:32:19.937Z,0.90
2022-09-07T03:32:40.519Z,1.00
2022-09-07T03:33:01.100Z,1.00
2022-09-07T03:33:21.501Z,1.00
2022-09-07T03:33:42.087Z,1.10
2022-09-07T03:34:02.686Z,1.10
2022-09-07T03:34:23.273Z,1.00
2022-09-07T03:34:43.853Z,1.00
2022-09-07T03:35:04.438Z,1.00
2022-09-07T03:35:25.020Z,1.00
2022-09-07T03:35:45.602Z,0.90
2022-09-07T03:36:06.203Z,0.90
2022-09-07T03:36:26.788Z,0.90
2022-09-07T03:36:47.375Z,1.10
2022-09-07T03:37:07.968Z,1.00
2022-09-07T03:37:28.366Z,1.10
2022-09-07T03:37:48.947Z,0.90
2022-09-07T03:38:09.530Z,0.90
2022-09-07T03:38:30.205Z,1.10
2022-09-07T03:38:50.876Z,1.20
2022-09-07T03:39:11.481Z,0.90
2022-09-07T03:39:32.151Z,0.90
2022-09-07T03:39:52.779Z,1.20
2022-09-07T03:40:13.220Z,1.00
2022-09-07T03:40:33.810Z,1.00
2022-09-07T03:40:54.394Z,1.20
2022-09-07T03:41:14.976Z,1.10
2022-09-07T03:41:35.560Z,1.10
2022-09-07T03:41:56.153Z,1.00
2022-09-07T03:42:17.476Z,1.10
2022-09-07T03:42:38.065Z,1.20
2022-09-07T03:42:58.641Z,1.00
2022-09-07T03:43:19.231Z,0.90
2022-09-07T03:43:39.813Z,0.90
2022-09-07T03:44:00.396Z,1.00
2022-09-07T03:44:20.996Z,1.00
2022-09-07T03:44:41.641Z,0.90
2022-09-07T03:45:02.197Z,1.00
2022-09-07T03:45:22.773Z,0.90
2022-09-07T03:45:43.407Z,0.90
2022-09-07T03:46:03.798Z,0.90
2022-09-07T03:46:24.457Z,1.00
2022-09-07T03:46:45.041Z,1.20
2022-09-07T03:47:05.627Z,1.10
2022-09-07T03:47:26.209Z,1.00
2022-09-07T03:47:46.794Z,1.10
2022-09-07T03:48:07.381Z,1.00
2022-09-07T03:48:28.576Z,1.00
2022-09-07T03:48:49.130Z,1.10
2022-09-07T03:49:09.711Z,1.10
2022-09-07T03:49:30.312Z,1.00
2022-09-07T03:49:50.892Z,1.00
2022-09-07T03:50:11.476Z,1.10
2022-09-07T03:50:32.057Z,1.00
2022-09-07T03:50:52.642Z,1.10
2022-09-07T03:51:13.223Z,1.20
2022-09-07T03:51:33.810Z,1.10
2022-09-07T03:51:54.202Z,1.00
2022-09-07T03:52:14.785Z,1.00
2022-09-07T03:52:35.186Z,1.00
2022-09-07T03:52:55.764Z,0.80
2022-09-07T03:53:16.347Z,1.20
2022-09-07T03:53:36.935Z,1.10
2022-09-07T03:53:57.522Z,1.00
2022-09-07T03:54:18.106Z,1.00
2022-09-07T03:54:39.738Z,1.00
2022-09-07T03:55:00.477Z,1.00
2022-09-07T03:55:20.869Z,1.00
2022-09-07T03:55:41.449Z,1.20
2022-09-07T03:56:02.034Z,1.10
2022-09-07T03:56:22.623Z,1.10
2022-09-07T03:56:43.206Z,1.20
2022-09-07T03:57:03.602Z,1.00
2022-09-07T03:57:24.000Z,1.10
2022-09-07T03:57:44.596Z,1.10
2022-09-07T03:58:05.175Z,1.10
2022-09-07T03:58:25.762Z,0.90
2022-09-07T03:58:46.347Z,0.90
2022-09-07T03:59:06.928Z,1.10
2022-09-07T03:59:27.509Z,1.10
2022-09-07T03:59:48.114Z,0.90
2022-09-07T04:00:08.696Z,1.10
2022-09-07T04:00:29.284Z,1.30
2022-09-07T04:00:49.867Z,1.20
2022-09-07T04:01:10.573Z,1.20
2022-09-07T04:01:31.282Z,1.00
2022-09-07T04:01:51.905Z,1.00
2022-09-07T04:02:12.513Z,1.10
2022-09-07T04:02:33.151Z,1.30
2022-09-07T04:02:53.798Z,1.30
2022-09-07T04:03:14.379Z,1.20
2022-09-07T04:03:34.773Z,1.00
2022-09-07T04:03:58.789Z,1.10
2022-09-07T04:04:15.758Z,1.00
2022-09-07T04:04:36.340Z,1.10
2022-09-07T04:04:56.956Z,1.20
2022-09-07T04:05:17.534Z,1.20
2022-09-07T04:05:38.116Z,1.00
2022-09-07T04:05:58.699Z,1.10
2022-09-07T04:06:19.092Z,1.00
2022-09-07T04:06:39.487Z,1.00
2022-09-07T04:06:59.884Z,1.00
2022-09-07T04:07:20.465Z,1.00
2022-09-07T04:07:41.049Z,0.90
2022-09-07T04:08:01.634Z,1.10
2022-09-07T04:08:22.224Z,0.90
2022-09-07T04:08:42.842Z,1.10
2022-09-07T04:09:03.992Z,1.10
2022-09-07T04:09:24.573Z,0.90
2022-09-07T04:09:45.158Z,1.00
2022-09-07T04:10:05.755Z,1.00
2022-09-07T04:10:26.335Z,1.10
2022-09-07T04:10:46.924Z,1.10
2022-09-07T04:11:07.506Z,1.00
2022-09-07T04:11:28.090Z,1.00
2022-09-07T04:11:48.675Z,1.10
2022-09-07T04:12:09.271Z,1.10
2022-09-07T04:12:29.847Z,1.00
2022-09-07T04:12:50.427Z,0.90
2022-09-07T04:13:11.007Z,1.10
2022-09-07T04:13:31.593Z,1.20
2022-09-07T04:14:39.470Z,1.20
2022-09-07T04:15:00.051Z,1.20
2022-09-07T04:15:20.456Z,1.00
2022-09-07T04:15:41.039Z,1.10
2022-09-07T04:16:01.616Z,1.10
2022-09-07T04:16:22.255Z,1.20
2022-09-07T04:16:42.865Z,1.00
2022-09-07T04:17:03.548Z,1.00
2022-09-07T04:17:24.125Z,1.10
2022-09-07T04:17:44.714Z,1.00
2022-09-07T04:18:05.285Z,1.30
2022-09-07T04:18:26.089Z,1.20
2022-09-07T04:18:46.723Z,1.20
2022-09-07T04:19:07.292Z,1.10
2022-09-07T04:19:27.691Z,1.00
2022-09-07T04:19:48.275Z,1.00
2022-09-07T04:20:08.876Z,1.10
2022-09-07T04:20:30.236Z,1.30
2022-09-07T04:20:50.825Z,1.20
2022-09-07T04:21:11.409Z,1.30
2022-09-07T04:21:31.989Z,1.20
2022-09-07T04:21:52.574Z,1.00
2022-09-07T04:22:13.349Z,1.20
2022-09-07T04:22:33.929Z,1.30
2022-09-07T04:22:54.543Z,1.40
2022-09-07T04:23:15.099Z,1.20
2022-09-07T04:23:35.684Z,1.10
2022-09-07T04:23:56.266Z,1.00
2022-09-07T04:24:16.849Z,1.10
2022-09-07T04:24:37.438Z,1.20
2022-09-07T04:24:58.024Z,1.00
2022-09-07T04:25:18.633Z,1.00
2022-09-07T04:25:39.231Z,1.20
2022-09-07T04:25:59.811Z,1.10
2022-09-07T04:26:20.392Z,1.00
2022-09-07T04:26:40.976Z,1.10
2022-09-07T04:27:01.555Z,1.00
2022-09-07T04:27:22.150Z,1.00
2022-09-07T04:27:42.730Z,1.10
2022-09-07T04:28:03.325Z,1.10
2022-09-07T04:28:23.909Z,1.10
2022-09-07T04:28:44.495Z,1.10
2022-09-07T04:29:05.083Z,1.00
2022-09-07T04:29:25.669Z,1.10
2022-09-07T04:29:46.250Z,1.10
2022-09-07T04:30:06.854Z,1.00
2022-09-07T04:30:27.435Z,1.10
2022-09-07T04:30:48.155Z,1.10
2022-09-07T04:31:08.783Z,1.00
2022-09-07T04:31:29.237Z,1.10
2022-09-07T04:31:49.803Z,1.20
2022-09-07T04:32:13.632Z,1.10
2022-09-07T04:32:30.803Z,1.20
2022-09-07T04:32:52.243Z,1.10
2022-09-07T04:33:12.825Z,1.20
2022-09-07T04:33:33.409Z,1.00
2022-09-07T04:33:54.027Z,1.10
2022-09-07T04:34:14.573Z,1.20
2022-09-07T04:34:35.157Z,1.20
2022-09-07T04:34:55.746Z,1.30
2022-09-07T04:35:16.343Z,1.10
2022-09-07T04:35:36.925Z,1.20
2022-09-07T04:35:57.507Z,1.20
2022-09-07T04:36:18.111Z,1.30
2022-09-07T04:36:38.691Z,1.30
2022-09-07T04:37:00.246Z,1.30
2022-09-07T04:37:20.706Z,1.30
2022-09-07T04:37:41.284Z,1.30
2022-09-07T04:38:01.869Z,1.20
2022-09-07T04:38:22.455Z,1.00
2022-09-07T04:38:43.035Z,1.30
2022-09-07T04:39:03.616Z,1.30
2022-09-07T04:39:24.199Z,1.20
2022-09-07T04:39:44.806Z,1.20
2022-09-07T04:40:05.510Z,1.00
2022-09-07T04:40:25.813Z,1.00
2022-09-07T04:40:46.401Z,1.10
2022-09-07T04:41:06.987Z,1.10
2022-09-07T04:41:27.572Z,1.00
2022-09-07T04:41:48.159Z,1.30
2022-09-07T04:42:09.294Z,1.20
2022-09-07T04:42:29.836Z,1.00
2022-09-07T04:42:50.421Z,1.10
2022-09-07T04:43:11.001Z,1.00
2022-09-07T04:43:31.789Z,1.00
2022-09-07T04:43:52.436Z,1.10
2022-09-07T04:44:16.798Z,1.10
2022-09-07T04:44:37.716Z,1.20
2022-09-07T04:44:58.300Z,1.10
2022-09-07T04:45:18.886Z,1.00
2022-09-07T04:45:39.527Z,1.30
2022-09-07T04:46:00.214Z,1.40
2022-09-07T04:46:20.871Z,1.10
2022-09-07T04:46:41.457Z,1.00
2022-09-07T04:47:02.035Z,1.10
2022-09-07T04:47:22.617Z,0.90
2022-09-07T04:47:43.198Z,1.10
2022-09-07T04:48:03.789Z,1.20
2022-09-07T04:48:24.389Z,1.50
2022-09-07T04:48:44.966Z,1.20
2022-09-07T04:49:05.548Z,1.10
2022-09-07T04:49:26.133Z,1.20
2022-09-07T04:49:46.713Z,1.20
2022-09-07T04:50:07.302Z,1.10
2022-09-07T04:50:27.881Z,1.00
2022-09-07T04:50:48.480Z,1.20
2022-09-07T04:51:09.067Z,1.30
2022-09-07T04:51:29.649Z,1.10
2022-09-07T04:51:50.236Z,1.00
2022-09-07T04:52:11.748Z,1.30
2022-09-07T04:52:32.331Z,1.30
2022-09-07T04:52:52.916Z,1.20
2022-09-07T04:53:13.501Z,1.10
2022-09-07T04:53:34.086Z,1.20
2022-09-07T04:53:54.678Z,1.20
2022-09-07T04:54:15.260Z,1.30
2022-09-07T04:54:35.843Z,1.40
2022-09-07T04:54:56.429Z,1.30
2022-09-07T04:55:17.010Z,1.10
2022-09-07T04:55:37.608Z,1.00
2022-09-07T04:55:58.192Z,1.20
2022-09-07T04:56:18.800Z,1.10
2022-09-07T04:56:39.189Z,1.20
2022-09-07T04:56:59.774Z,1.30
2022-09-07T04:57:20.361Z,1.10
2022-09-07T04:57:40.945Z,1.10
2022-09-07T04:58:01.537Z,1.20
2022-09-07T04:58:22.121Z,1.10
2022-09-07T04:59:30.001Z,1.30
2022-09-07T04:59:50.581Z,1.30
2022-09-07T05:00:11.164Z,1.20
2022-09-07T05:00:31.749Z,1.10
2022-09-07T05:00:52.383Z,1.30
2022-09-07T05:01:13.085Z,1.20
2022-09-07T05:01:33.770Z,1.20
2022-09-07T05:01:54.539Z,1.20
2022-09-07T05:02:15.196Z,1.30
2022-09-07T05:02:35.805Z,1.20
2022-09-07T05:02:56.372Z,1.10
2022-09-07T05:04:04.248Z,1.10
2022-09-07T05:04:24.831Z,1.20
2022-09-07T05:04:45.414Z,1.30
2022-09-07T05:05:05.998Z,1.30
2022-09-07T05:05:26.578Z,1.30
2022-09-07T05:05:47.179Z,1.20
2022-09-07T05:06:07.758Z,1.20
2022-09-07T05:06:28.344Z,1.30
2022-09-07T05:06:48.924Z,1.20
2022-09-07T05:07:09.509Z,1.10
2022-09-07T05:07:30.093Z,1.10
2022-09-07T05:07:50.675Z,1.20
2022-09-07T05:08:11.255Z,1.30
2022-09-07T05:08:31.952Z,1.30
2022-09-07T05:08:52.520Z,1.10
2022-09-07T05:09:13.102Z,1.10
2022-09-07T05:09:33.503Z,1.10
2022-09-07T05:09:54.088Z,1.20
2022-09-07T05:11:01.972Z,1.00
2022-09-07T05:11:27.763Z,1.10
2022-09-07T05:11:42.957Z,1.00
2022-09-07T05:12:03.540Z,1.00
2022-09-07T05:12:24.128Z,1.20
2022-09-07T05:12:44.532Z,1.40
2022-09-07T05:13:05.108Z,1.30
2022-09-07T05:13:25.692Z,1.10
2022-09-07T05:13:46.275Z,1.10
2022-09-07T05:14:06.903Z,1.10
2022-09-07T05:14:27.269Z,1.00
2022-09-07T05:14:47.859Z,1.20
2022-09-07T05:15:08.438Z,1.30
2022-09-07T05:15:29.020Z,1.20
2022-09-07T05:15:49.622Z,1.30
2022-09-07T05:16:10.265Z,1.00
2022-09-07T05:16:30.923Z,1.10
2022-09-07T05:16:51.624Z,1.30
2022-09-07T05:17:12.212Z,1.20
2022-09-07T05:17:32.795Z,1.50
2022-09-07T05:17:53.383Z,1.20
2022-09-07T05:18:13.963Z,1.00
2022-09-07T05:18:34.543Z,1.00
2022-09-07T05:18:55.129Z,1.20
2022-09-07T05:19:15.718Z,1.20
2022-09-07T05:19:36.290Z,1.30
2022-09-07T05:19:56.873Z,1.40
2022-09-07T05:20:20.251Z,1.10
2022-09-07T05:20:37.867Z,1.20
2022-09-07T05:20:58.484Z,1.30
2022-09-07T05:21:19.059Z,1.20
2022-09-07T05:21:39.478Z,1.10
2022-09-07T05:22:00.071Z,1.30
2022-09-07T05:22:20.636Z,1.20
2022-09-07T05:22:41.229Z,1.20
2022-09-07T05:23:01.801Z,1.20
2022-09-07T05:24:09.685Z,1.00
2022-09-07T05:24:30.267Z,1.10
2022-09-07T05:24:50.851Z,1.30
2022-09-07T05:25:11.440Z,1.20
2022-09-07T05:25:32.942Z,1.10
2022-09-07T05:25:53.540Z,1.30
2022-09-07T05:26:14.118Z,1.20
2022-09-07T05:26:34.712Z,1.30
2022-09-07T05:26:55.285Z,1.30
2022-09-07T05:27:15.866Z,1.20
2022-09-07T05:27:36.447Z,1.20
2022-09-07T05:27:57.026Z,1.10
2022-09-07T05:28:19.564Z,1.10
2022-09-07T05:28:40.208Z,1.20
2022-09-07T05:30:03.502Z,1.30
2022-09-07T05:31:19.441Z,1.10
2022-09-07T05:31:23.656Z,1.20
2022-09-07T05:31:44.239Z,1.20
2022-09-07T05:32:04.827Z,1.20
2022-09-07T05:32:25.412Z,1.20
2022-09-07T05:32:45.995Z,1.30
2022-09-07T05:33:06.578Z,1.30
2022-09-07T05:34:50.991Z,1.20
2022-09-07T05:35:13.499Z,1.00
2022-09-07T05:35:34.083Z,1.30
2022-09-07T05:35:54.677Z,1.30
2022-09-07T05:36:15.263Z,1.30
2022-09-07T05:36:35.866Z,1.00
2022-09-07T05:36:56.254Z,1.30
2022-09-07T05:37:16.841Z,1.30
2022-09-07T05:37:37.426Z,1.20
2022-09-07T05:37:58.952Z,1.20
2022-09-07T05:38:26.561Z,1.20
2022-09-07T05:38:42.029Z,1.30
2022-09-07T05:39:02.618Z,1.40
2022-09-07T05:39:23.208Z,1.20
2022-09-07T05:39:43.823Z,1.30
2022-09-07T05:40:04.483Z,1.20
2022-09-07T05:40:25.950Z,1.10
2022-09-07T05:40:46.349Z,1.10
2022-09-07T05:41:06.946Z,1.30
2022-09-07T05:41:27.344Z,1.40
2022-09-07T05:41:47.923Z,1.30
2022-09-07T05:42:08.509Z,1.30
2022-09-07T05:42:29.090Z,1.40
2022-09-07T05:42:49.677Z,1.30
2022-09-07T05:43:10.259Z,1.30
2022-09-07T05:43:30.840Z,1.20
2022-09-07T05:44:47.586Z,1.20
2022-09-07T05:44:52.639Z,1.20
2022-09-07T05:45:13.222Z,1.40
2022-09-07T05:45:33.856Z,1.40
2022-09-07T05:45:54.432Z,1.40
2022-09-07T05:46:15.084Z,1.30
2022-09-07T05:46:35.658Z,1.20
2022-09-07T05:46:56.232Z,1.20
2022-09-07T05:47:16.817Z,1.20
2022-09-07T05:47:37.402Z,1.30
2022-09-07T05:47:57.984Z,1.30
2022-09-07T05:48:18.567Z,1.10
2022-09-07T05:48:39.153Z,1.30
2022-09-07T05:49:00.463Z,1.20
2022-09-07T05:49:21.034Z,1.30
2022-09-07T05:49:41.631Z,1.50
2022-09-07T05:50:02.201Z,1.40
2022-09-07T05:50:22.789Z,1.50
2022-09-07T05:50:43.383Z,1.20
2022-09-07T05:51:03.965Z,1.30
2022-09-07T05:51:24.564Z,1.30
2022-09-07T05:51:45.147Z,1.20
2022-09-07T05:52:05.734Z,1.30
2022-09-07T05:52:26.122Z,1.10
2022-09-07T05:52:46.707Z,1.00
2022-09-07T05:53:07.286Z,1.20
2022-09-07T05:53:28.453Z,1.30
2022-09-07T05:53:49.035Z,1.20
2022-09-07T05:54:09.618Z,1.20
2022-09-07T05:54:30.201Z,1.30
2022-09-07T05:54:50.783Z,1.50
2022-09-07T05:55:28.863Z,1.30
2022-09-07T05:55:31.774Z,1.20
2022-09-07T05:55:52.359Z,1.20
2022-09-07T05:56:12.943Z,1.30
2022-09-07T05:56:33.536Z,1.50
2022-09-07T05:56:54.127Z,1.40
2022-09-07T05:57:14.703Z,1.30
2022-09-07T05:57:35.277Z,1.20
2022-09-07T05:57:55.856Z,1.30
2022-09-07T05:58:16.439Z,1.50
2022-09-07T05:58:37.022Z,1.30
2022-09-07T05:58:57.596Z,1.30
2022-09-07T05:59:18.184Z,1.30
2022-09-07T05:59:38.763Z,1.50
2022-09-07T05:59:59.343Z,1.50
2022-09-07T06:00:19.932Z,1.40
2022-09-07T06:00:40.528Z,1.20
2022-09-07T06:01:01.111Z,1.30
2022-09-07T06:01:21.697Z,1.60
2022-09-07T06:01:42.358Z,1.60
2022-09-07T06:02:03.093Z,1.50
2022-09-07T06:02:23.455Z,1.10
2022-09-07T06:02:43.781Z,1.20
2022-09-07T06:03:04.552Z,1.40
2022-09-07T06:03:25.206Z,1.50
2022-09-07T06:03:45.793Z,1.30
2022-09-07T06:04:06.380Z,1.30
2022-09-07T06:04:26.966Z,1.40
2022-09-07T06:04:47.548Z,1.30
2022-09-07T06:05:08.133Z,1.30
2022-09-07T06:05:28.715Z,1.40
2022-09-07T06:05:49.303Z,1.40
2022-09-07T06:06:09.887Z,1.40
2022-09-07T06:06:30.283Z,1.30
2022-09-07T06:07:20.198Z,1.50
2022-09-07T06:07:21.487Z,1.40
2022-09-07T06:07:31.692Z,1.40
2022-09-07T06:07:52.270Z,1.40
2022-09-07T06:08:12.846Z,1.30
2022-09-07T06:08:33.431Z,1.50
2022-09-07T06:08:54.951Z,1.30
2022-09-07T06:09:15.526Z,1.20
2022-09-07T06:09:36.311Z,1.30
2022-09-07T06:11:01.214Z,1.40
2022-09-07T06:11:21.820Z,1.40
2022-09-07T06:11:42.431Z,1.40
2022-09-07T06:12:03.019Z,1.30
2022-09-07T06:12:23.600Z,1.50
2022-09-07T06:12:45.664Z,1.40
2022-09-07T06:13:09.033Z,1.50
2022-09-07T06:13:29.752Z,1.40
2022-09-07T06:13:50.366Z,1.20
2022-09-07T06:14:10.953Z,1.60
2022-09-07T06:14:31.537Z,1.40
2022-09-07T06:14:52.120Z,1.30
2022-09-07T06:15:12.703Z,1.40
2022-09-07T06:15:33.286Z,1.20
2022-09-07T06:15:53.875Z,1.30
2022-09-07T06:16:14.561Z,1.50
2022-09-07T06:16:35.202Z,1.30
2022-09-07T06:16:55.824Z,1.20
2022-09-07T06:17:16.388Z,1.30
2022-09-07T06:17:36.972Z,1.40
2022-09-07T06:17:57.555Z,1.40
2022-09-07T06:18:18.136Z,1.50
2022-09-07T06:18:38.721Z,1.30
2022-09-07T06:18:59.302Z,1.20
2022-09-07T06:19:19.883Z,1.20
2022-09-07T06:19:40.467Z,1.40
2022-09-07T06:20:01.051Z,1.40
2022-09-07T06:20:22.460Z,1.30
2022-09-07T06:20:43.039Z,1.30
2022-09-07T06:21:03.625Z,1.20
2022-09-07T06:21:24.213Z,1.20
2022-09-07T06:21:44.809Z,1.40
2022-09-07T06:22:05.391Z,1.30
2022-09-07T06:22:30.574Z,1.40
2022-09-07T06:22:46.380Z,1.30
2022-09-07T06:23:06.972Z,1.30
2022-09-07T06:23:27.670Z,1.50
2022-09-07T06:23:48.254Z,1.40
2022-09-07T06:24:08.837Z,1.60
2022-09-07T06:24:29.420Z,1.50
2022-09-07T06:24:50.002Z,1.40
2022-09-07T06:25:10.583Z,1.20
2022-09-07T06:25:31.167Z,1.30
2022-09-07T06:25:51.747Z,1.30
2022-09-07T06:26:12.331Z,1.20
2022-09-07T06:26:32.912Z,1.40
2022-09-07T06:26:53.509Z,1.70
2022-09-07T06:27:14.091Z,1.60
2022-09-07T06:27:34.676Z,1.40
2022-09-07T06:27:55.258Z,1.40
2022-09-07T06:28:15.840Z,1.30
2022-09-07T06:28:36.426Z,1.40
2022-09-07T06:28:57.978Z,1.40
2022-09-07T06:29:18.672Z,1.40
2022-09-07T06:29:39.254Z,1.50
2022-09-07T06:29:59.845Z,1.40
2022-09-07T06:30:20.418Z,1.30
2022-09-07T06:30:41.011Z,1.20
2022-09-07T06:31:02.466Z,1.30
2022-09-07T06:31:23.472Z,1.40
2022-09-07T06:32:45.014Z,1.50
2022-09-07T06:33:05.839Z,1.30
2022-09-07T06:33:26.421Z,1.40
2022-09-07T06:33:47.003Z,1.20
2022-09-07T06:34:07.583Z,1.30
2022-09-07T06:34:28.169Z,1.60
2022-09-07T06:34:48.750Z,1.50
2022-09-07T06:35:09.330Z,1.30
2022-09-07T06:35:29.725Z,1.40
2022-09-07T06:35:50.308Z,1.50
2022-09-07T06:36:10.894Z,1.60
2022-09-07T06:36:31.488Z,1.50
2022-09-07T06:36:52.079Z,1.40
2022-09-07T06:37:12.661Z,1.40
2022-09-07T06:37:33.249Z,1.50
2022-09-07T06:37:53.834Z,1.60
2022-09-07T06:38:14.415Z,1.50
2022-09-07T06:38:34.991Z,1.20
2022-09-07T06:38:55.387Z,1.30
2022-09-07T06:39:15.971Z,1.50
2022-09-07T06:39:36.657Z,1.20
2022-09-07T06:39:57.268Z,1.30
2022-09-07T06:40:17.613Z,1.20
2022-09-07T06:40:38.197Z,1.30
2022-09-07T06:42:00.104Z,1.70
2022-09-07T06:42:20.808Z,1.50
2022-09-07T06:42:41.394Z,1.40
2022-09-07T06:43:01.974Z,1.50
2022-09-07T06:43:22.562Z,1.40
2022-09-07T06:43:45.597Z,1.30
2022-09-07T06:44:07.470Z,1.40
2022-09-07T06:44:28.053Z,1.60
2022-09-07T06:44:48.632Z,1.40
2022-09-07T06:45:09.974Z,1.50
2022-09-07T06:45:30.404Z,1.50
2022-09-07T06:45:51.273Z,1.50
2022-09-07T06:47:13.083Z,1.30
2022-09-07T06:47:33.692Z,1.40
2022-09-07T06:47:54.294Z,1.30